Time;durP1;ratioP1;P1;durP2;ratioP2;P2;SDS_P1;SDS_P2;PMS_P1;PMS_P2;Temp;Humidity;BMP_temperature;BMP_pressure;BME280_temperature;BME280_humidity;BME280_pressure;Samples;Min_cycle;Max_cycle;Signal;HPM_P1;HPM_P2
2023/05/30 00:00:56;;;;;;;;;;;;;;;9.78;73.80;102674.59;5023804;28;19956;-44
2023/05/30 00:03:23;;;;;;;;;;;;;;;9.71;73.58;102686.19;5024797;28;20415;-43
2023/05/30 00:05:49;;;;;;;;;;;;;;;9.71;75.41;102675.00;5023437;28;20289;-43
2023/05/30 00:08:14;;;;;;;;;;;;;;;9.67;74.97;102674.84;5021394;28;19921;-45
2023/05/30 00:10:40;;;;;;;;;;;;;;;9.66;73.55;102675.63;5020907;28;19987;-43
2023/05/30 00:13:05;;;;;;;;;;;;;;;9.64;76.08;102689.16;5017756;28;19924;-44
2023/05/30 00:15:31;;;;;;;;;;;;;;;9.64;77.16;102684.91;5019140;28;20178;-44
2023/05/30 00:17:58;;;;;;;;;;;;;;;9.60;75.77;102682.09;5012538;28;20121;-44
2023/05/30 00:20:23;;;;;;;;;;;;;;;9.53;76.15;102679.94;5015114;28;19921;-44
2023/05/30 00:22:49;;;;;;;;;;;;;;;9.55;75.90;102683.47;5016523;28;19932;-45
2023/05/30 00:25:14;;;;;;;;;;;;;;;9.52;76.59;102685.84;5020945;28;20272;-46
2023/05/30 00:27:39;;;;;;;;;;;;;;;9.47;77.43;102680.44;5014770;28;19925;-42
2023/05/30 00:30:05;;;;;;;;;;;;;;;9.46;76.14;102691.50;5013532;28;19921;-44
2023/05/30 00:32:30;;;;;;;;;;;;;;;9.40;77.63;102694.59;5013338;28;20384;-43
2023/05/30 00:34:56;;;;;;;;;;;;;;;9.40;74.94;102689.47;5022386;28;19917;-44
2023/05/30 00:37:21;;;;;;;;;;;;;;;9.36;79.76;102692.63;5022280;28;19921;-56
2023/05/30 00:39:46;;;;;;;;;;;;;;;9.33;78.02;102686.38;5021314;28;19917;-55
2023/05/30 00:42:11;;;;;;;;;;;;;;;9.30;77.39;102692.25;5019001;28;19924;-56
2023/05/30 00:44:37;;;;;;;;;;;;;;;9.28;77.01;102695.47;5015056;28;19921;-56
2023/05/30 00:47:02;;;;;;;;;;;;;;;9.21;80.65;102701.03;5017518;28;20327;-55
2023/05/30 00:49:27;;;;;;;;;;;;;;;9.19;80.64;102697.50;5014627;28;19960;-55
2023/05/30 00:51:53;;;;;;;;;;;;;;;9.19;78.90;102689.78;5016859;28;20422;-54
2023/05/30 00:54:19;;;;;;;;;;;;;;;9.17;79.76;102696.53;5015998;28;20375;-55
2023/05/30 00:56:44;;;;;;;;;;;;;;;9.16;79.67;102702.41;5019491;28;19917;-53
2023/05/30 00:59:09;;;;;;;;;;;;;;;9.19;81.02;102705.19;5022656;28;19981;-55
2023/05/30 01:01:35;;;;;;;;;;;;;;;9.10;80.50;102706.41;5027345;28;19917;-55
2023/05/30 01:04:00;;;;;;;;;;;;;;;9.09;81.93;102714.84;5026273;28;19940;-55
2023/05/30 01:06:27;;;;;;;;;;;;;;;9.08;79.77;102704.50;5027284;28;20315;-55
2023/05/30 01:08:54;;;;;;;;;;;;;;;9.01;82.57;102698.09;5023828;28;20022;-56
2023/05/30 01:11:46;;;;;;;;;;;;;;;8.99;81.90;102696.25;5024941;28;20330;-57
2023/05/30 01:14:23;;;;;;;;;;;;;;;8.98;80.46;102700.47;5025001;28;19999;-55
2023/05/30 01:16:52;;;;;;;;;;;;;;;8.95;81.66;102694.25;5021391;28;19924;-55
2023/05/30 01:19:30;;;;;;;;;;;;;;;8.91;83.27;102697.41;5023738;28;20390;-54
2023/05/30 01:22:06;;;;;;;;;;;;;;;8.90;84.09;102700.78;5023643;28;20419;-54
2023/05/30 01:24:36;;;;;;;;;;;;;;;8.87;83.51;102698.91;5020470;28;19925;-56
2023/05/30 01:27:03;;;;;;;;;;;;;;;8.83;81.56;102702.94;5026215;28;19943;-54
2023/05/30 01:29:30;;;;;;;;;;;;;;;8.79;82.13;102700.06;5018390;28;19917;-56
2023/05/30 01:31:56;;;;;;;;;;;;;;;8.82;82.28;102701.16;5021714;28;19913;-56
2023/05/30 01:34:22;;;;;;;;;;;;;;;8.76;82.49;102705.03;5017078;28;20079;-56
2023/05/30 01:36:47;;;;;;;;;;;;;;;8.73;83.73;102700.56;5035316;28;20412;-55
2023/05/30 01:39:13;;;;;;;;;;;;;;;8.70;83.91;102695.25;5016387;28;19921;-56
2023/05/30 01:41:38;;;;;;;;;;;;;;;8.68;82.53;102703.66;5019889;28;19924;-55
2023/05/30 01:44:10;;;;;;;;;;;;;;;8.68;80.67;102707.09;5016284;28;19917;-54
2023/05/30 01:46:36;;;;;;;;;;;;;;;8.65;85.63;102703.44;5016719;28;19914;-56
2023/05/30 01:49:17;;;;;;;;;;;;;;;8.60;84.95;102704.00;5014554;28;19921;-55
2023/05/30 01:51:45;;;;;;;;;;;;;;;8.59;84.94;102709.94;5016408;28;19967;-55
2023/05/30 01:54:13;;;;;;;;;;;;;;;8.57;83.98;102708.94;5013478;28;20008;-54
2023/05/30 01:56:39;;;;;;;;;;;;;;;8.56;84.91;102722.56;5016842;28;19920;-55
2023/05/30 01:59:05;;;;;;;;;;;;;;;8.52;83.78;102719.69;5014301;28;19921;-54
2023/05/30 02:01:31;;;;;;;;;;;;;;;8.49;84.33;102725.53;5018731;28;19944;-56
2023/05/30 02:03:56;;;;;;;;;;;;;;;8.48;84.24;102728.84;5017176;28;19971;-56
2023/05/30 02:06:22;;;;;;;;;;;;;;;8.46;84.30;102730.44;5017646;28;19917;-55
2023/05/30 02:08:48;;;;;;;;;;;;;;;8.45;85.83;102727.78;5022418;28;20312;-57
2023/05/30 02:11:13;;;;;;;;;;;;;;;8.43;86.79;102734.44;5018085;28;19929;-55
2023/05/30 02:13:38;;;;;;;;;;;;;;;8.40;87.96;102736.81;5018623;28;20296;-54
2023/05/30 02:16:03;;;;;;;;;;;;;;;8.36;85.30;102733.16;5016920;28;20055;-54
2023/05/30 02:18:29;;;;;;;;;;;;;;;8.34;87.31;102735.59;5017587;28;19925;-55
2023/05/30 02:20:54;;;;;;;;;;;;;;;8.34;88.42;102742.41;5014628;28;19956;-55
2023/05/30 02:23:20;;;;;;;;;;;;;;;8.34;90.35;102740.72;5014038;28;19968;-55
2023/05/30 02:25:45;;;;;;;;;;;;;;;8.31;90.30;102745.66;5017492;28;19940;-55
2023/05/30 02:28:10;;;;;;;;;;;;;;;8.29;89.31;102746.31;5017327;28;19960;-54
2023/05/30 02:30:36;;;;;;;;;;;;;;;8.26;88.71;102735.88;5012054;28;19918;-56
2023/05/30 02:33:02;;;;;;;;;;;;;;;8.24;88.76;102735.75;5026084;28;19932;-55
2023/05/30 02:35:27;;;;;;;;;;;;;;;8.24;87.88;102732.31;5010662;28;19957;-56
2023/05/30 02:37:52;;;;;;;;;;;;;;;8.21;87.45;102727.88;5009522;28;19940;-56
2023/05/30 02:40:17;;;;;;;;;;;;;;;8.21;89.10;102737.25;5013596;28;20015;-56
2023/05/30 02:42:43;;;;;;;;;;;;;;;8.18;89.55;102732.78;5012977;28;20296;-55
2023/05/30 02:45:08;;;;;;;;;;;;;;;8.18;90.61;102739.56;5015543;28;19928;-56
2023/05/30 02:47:33;;;;;;;;;;;;;;;8.15;88.29;102737.72;5018143;28;19917;-55
2023/05/30 02:49:58;;;;;;;;;;;;;;;8.15;86.00;102741.94;5020246;28;20004;-55
2023/05/30 02:52:24;;;;;;;;;;;;;;;8.15;88.92;102740.28;5018467;28;19913;-55
2023/05/30 02:54:49;;;;;;;;;;;;;;;8.16;88.38;102736.91;5020102;28;19925;-55
2023/05/30 02:57:15;;;;;;;;;;;;;;;8.13;87.98;102730.69;5016148;28;19917;-56
2023/05/30 02:59:40;;;;;;;;;;;;;;;8.13;90.23;102731.59;5015717;28;20396;-55
2023/05/30 03:02:05;;;;;;;;;;;;;;;8.11;89.99;102724.59;5013991;28;19980;-57
2023/05/30 03:04:31;;;;;;;;;;;;;;;8.09;89.79;102726.16;5023502;28;19991;-56
2023/05/30 03:06:56;;;;;;;;;;;;;;;8.06;89.55;102726.81;5017918;28;19922;-55
2023/05/30 03:09:22;;;;;;;;;;;;;;;8.03;89.84;102719.84;5013805;28;19925;-57
2023/05/30 03:11:47;;;;;;;;;;;;;;;8.02;91.21;102725.75;5018042;28;20422;-56
2023/05/30 03:14:12;;;;;;;;;;;;;;;8.03;88.80;102726.63;5022587;28;20598;-57
2023/05/30 03:16:39;;;;;;;;;;;;;;;8.02;87.99;102724.84;5024379;28;19919;-56
2023/05/30 03:19:04;;;;;;;;;;;;;;;8.04;91.60;102730.97;5020344;28;19957;-56
2023/05/30 03:21:30;;;;;;;;;;;;;;;8.05;89.12;102740.41;5023278;28;19956;-56
2023/05/30 03:23:56;;;;;;;;;;;;;;;8.06;89.91;102737.97;5019774;28;19921;-55
2023/05/30 03:26:22;;;;;;;;;;;;;;;8.07;87.82;102739.75;5020724;28;20283;-56
2023/05/30 03:28:48;;;;;;;;;;;;;;;8.13;88.64;102751.19;5015252;28;19921;-55
2023/05/30 03:31:13;;;;;;;;;;;;;;;8.15;89.43;102752.19;5016761;28;19921;-57
2023/05/30 03:33:38;;;;;;;;;;;;;;;8.17;89.12;102754.06;5016316;28;19922;-56
2023/05/30 03:36:05;;;;;;;;;;;;;;;8.22;91.55;102752.72;5013998;28;19918;-56
2023/05/30 03:38:30;;;;;;;;;;;;;;;8.22;89.82;102755.28;5014691;28;19925;-57
2023/05/30 03:40:55;;;;;;;;;;;;;;;8.29;90.01;102751.44;5017625;28;20012;-56
2023/05/30 03:43:21;;;;;;;;;;;;;;;8.30;90.28;102754.09;5019494;28;19949;-56
2023/05/30 03:45:46;;;;;;;;;;;;;;;8.32;88.89;102754.22;5027880;28;19921;-54
2023/05/30 03:48:11;;;;;;;;;;;;;;;8.36;90.04;102758.78;5026953;28;19947;-56
2023/05/30 03:50:37;;;;;;;;;;;;;;;8.42;88.37;102763.44;5025447;28;20380;-55
2023/05/30 03:53:02;;;;;;;;;;;;;;;8.48;88.43;102774.09;5024614;28;19939;-56
2023/05/30 03:55:27;;;;;;;;;;;;;;;8.53;88.36;102770.19;5023504;28;19929;-57
2023/05/30 03:57:52;;;;;;;;;;;;;;;8.57;85.48;102775.63;5024402;28;19917;-56
2023/05/30 04:00:18;;;;;;;;;;;;;;;8.60;90.12;102775.81;5024004;28;19917;-56
2023/05/30 04:02:43;;;;;;;;;;;;;;;8.64;86.58;102771.78;5024376;28;19924;-55
2023/05/30 04:05:09;;;;;;;;;;;;;;;8.70;89.28;102771.31;5019939;28;20320;-56
2023/05/30 04:07:36;;;;;;;;;;;;;;;8.74;87.21;102769.06;5022222;28;20401;-54
2023/05/30 04:10:04;;;;;;;;;;;;;;;8.82;86.92;102769.53;5018256;28;19964;-55
2023/05/30 04:12:29;;;;;;;;;;;;;;;8.85;88.07;102767.16;5023137;28;19917;-56
2023/05/30 04:14:55;;;;;;;;;;;;;;;8.91;87.46;102765.00;5016294;28;19913;-54
2023/05/30 04:17:20;;;;;;;;;;;;;;;8.92;87.76;102768.44;5018265;28;20015;-56
2023/05/30 04:19:46;;;;;;;;;;;;;;;8.96;89.55;102762.75;5020793;28;19996;-56
2023/05/30 04:22:11;;;;;;;;;;;;;;;8.99;86.62;102763.84;5025233;28;19964;-55
2023/05/30 04:24:36;;;;;;;;;;;;;;;9.05;86.94;102766.81;5023814;28;19913;-55
2023/05/30 04:27:02;;;;;;;;;;;;;;;9.08;85.60;102764.41;5025926;28;19921;-56
2023/05/30 04:29:27;;;;;;;;;;;;;;;9.20;85.25;102763.44;5023838;28;19921;-56
2023/05/30 04:31:52;;;;;;;;;;;;;;;9.24;85.86;102775.69;5026024;28;19924;-55
2023/05/30 04:34:18;;;;;;;;;;;;;;;9.28;86.94;102770.84;5015084;28;19922;-54
2023/05/30 04:36:44;;;;;;;;;;;;;;;9.33;86.32;102768.53;5013591;28;19944;-55
2023/05/30 04:39:09;;;;;;;;;;;;;;;9.35;86.84;102765.31;5014598;28;19913;-56
2023/05/30 04:41:35;;;;;;;;;;;;;;;9.38;86.14;102767.16;5013665;28;20387;-55
2023/05/30 04:44:02;;;;;;;;;;;;;;;9.41;86.93;102769.94;5014843;28;20046;-56
2023/05/30 04:46:28;;;;;;;;;;;;;;;9.46;87.39;102770.19;5013743;28;19960;-55
2023/05/30 04:48:55;;;;;;;;;;;;;;;9.51;87.08;102762.00;5021954;28;20371;-55
2023/05/30 04:51:21;;;;;;;;;;;;;;;9.54;86.38;102762.22;5016019;28;19975;-56
2023/05/30 04:53:47;;;;;;;;;;;;;;;9.61;86.03;102764.34;5019689;28;20482;-56
2023/05/30 04:56:12;;;;;;;;;;;;;;;9.68;85.27;102763.06;5014738;28;20047;-55
2023/05/30 04:58:38;;;;;;;;;;;;;;;9.70;85.60;102763.13;5022840;28;19961;-55
2023/05/30 05:01:03;;;;;;;;;;;;;;;9.76;84.70;102766.09;5018457;28;19925;-55
2023/05/30 05:03:28;;;;;;;;;;;;;;;9.85;85.65;102769.25;5014553;28;20028;-55
2023/05/30 05:05:54;;;;;;;;;;;;;;;9.93;84.60;102766.31;5012483;28;19945;-55
2023/05/30 05:08:19;;;;;;;;;;;;;;;9.99;85.82;102765.81;5012030;28;20005;-56
2023/05/30 05:10:44;;;;;;;;;;;;;;;10.07;83.80;102756.91;5017895;28;19980;-56
2023/05/30 05:13:10;;;;;;;;;;;;;;;10.07;84.88;102763.69;5015161;28;20293;-56
2023/05/30 05:15:35;;;;;;;;;;;;;;;10.13;83.59;102764.97;5016500;28;19924;-60
2023/05/30 05:18:00;;;;;;;;;;;;;;;10.16;83.71;102765.16;5013164;28;20007;-56
2023/05/30 05:20:26;;;;;;;;;;;;;;;10.22;84.28;102764.63;5011716;28;20383;-57
2023/05/30 05:22:53;;;;;;;;;;;;;;;10.23;83.05;102760.38;5012193;28;20407;-56
2023/05/30 05:25:18;;;;;;;;;;;;;;;10.24;83.25;102764.75;5023527;28;19924;-55
2023/05/30 05:27:43;;;;;;;;;;;;;;;10.31;83.85;102764.31;5019718;28;20008;-55
2023/05/30 05:30:10;;;;;;;;;;;;;;;10.44;82.49;102756.56;5019900;28;20448;-56
2023/05/30 05:32:38;;;;;;;;;;;;;;;10.40;83.23;102758.03;5015108;28;19925;-56
2023/05/30 05:35:04;;;;;;;;;;;;;;;10.47;83.57;102762.75;5017036;28;19948;-57
2023/05/30 05:37:30;;;;;;;;;;;;;;;10.57;82.78;102769.31;5013620;28;20384;-56
2023/05/30 05:39:55;;;;;;;;;;;;;;;10.61;82.64;102768.69;5017497;28;19924;-56
2023/05/30 05:42:20;;;;;;;;;;;;;;;10.74;81.17;102768.63;5013847;28;19926;-55
2023/05/30 05:44:45;;;;;;;;;;;;;;;10.68;81.71;102764.81;5017896;28;20364;-55
2023/05/30 05:47:11;;;;;;;;;;;;;;;10.67;81.78;102763.91;5015159;28;19922;-56
2023/05/30 05:49:36;;;;;;;;;;;;;;;10.72;81.74;102761.59;5025523;28;19975;-56
2023/05/30 05:52:01;;;;;;;;;;;;;;;10.74;80.83;102763.47;5027020;28;19924;-56
2023/05/30 05:54:27;;;;;;;;;;;;;;;10.80;80.47;102762.94;5008211;28;19925;-56
2023/05/30 05:56:52;;;;;;;;;;;;;;;10.80;80.58;102767.19;5018975;28;19917;-56
2023/05/30 05:59:17;;;;;;;;;;;;;;;10.83;80.66;102770.81;5019619;28;19917;-57
2023/05/30 06:01:43;;;;;;;;;;;;;;;10.80;80.76;102769.75;5016216;28;20001;-57
2023/05/30 06:04:08;;;;;;;;;;;;;;;10.85;80.59;102773.47;5014011;28;19925;-56
2023/05/30 06:06:34;;;;;;;;;;;;;;;10.90;80.72;102783.25;5015705;28;19918;-56
2023/05/30 06:09:00;;;;;;;;;;;;;;;11.04;79.89;102778.88;5015256;28;19933;-56
2023/05/30 06:11:25;;;;;;;;;;;;;;;11.09;79.27;102777.44;5016349;28;19933;-56
2023/05/30 06:13:50;;;;;;;;;;;;;;;11.12;79.61;102774.16;5013278;28;20408;-55
2023/05/30 06:16:16;;;;;;;;;;;;;;;11.16;79.13;102781.25;5017556;28;19940;-56
2023/05/30 06:18:42;;;;;;;;;;;;;;;11.21;79.13;102778.13;5012667;28;19928;-55
2023/05/30 06:21:10;;;;;;;;;;;;;;;11.25;78.89;102780.09;5018893;28;20008;-57
2023/05/30 06:23:35;;;;;;;;;;;;;;;11.34;78.23;102781.38;5019545;28;20296;-55
2023/05/30 06:26:00;;;;;;;;;;;;;;;11.26;78.31;102779.28;5019337;28;20440;-55
2023/05/30 06:28:25;;;;;;;;;;;;;;;11.25;78.31;102774.06;5022083;28;19912;-55
2023/05/30 06:30:51;;;;;;;;;;;;;;;11.28;77.83;102782.84;5019102;28;19925;-55
2023/05/30 06:33:16;;;;;;;;;;;;;;;11.40;77.67;102780.03;5022090;28;20012;-57
2023/05/30 06:35:41;;;;;;;;;;;;;;;11.40;77.39;102779.16;5019740;28;19925;-55
2023/05/30 06:38:06;;;;;;;;;;;;;;;11.42;77.78;102778.44;5019665;28;19929;-54
2023/05/30 06:40:32;;;;;;;;;;;;;;;11.58;76.81;102776.69;5019561;28;19921;-57
2023/05/30 06:42:58;;;;;;;;;;;;;;;11.62;76.83;102782.09;5017625;28;20520;-57
2023/05/30 06:45:23;;;;;;;;;;;;;;;11.74;76.98;102787.03;5019906;28;19917;-56
2023/05/30 06:47:48;;;;;;;;;;;;;;;11.93;76.28;102782.09;5017678;28;19917;-56
2023/05/30 06:50:13;;;;;;;;;;;;;;;12.05;75.61;102779.28;5018065;28;20011;-56
2023/05/30 06:52:39;;;;;;;;;;;;;;;12.12;75.23;102778.78;5018244;28;19961;-56
2023/05/30 06:55:04;;;;;;;;;;;;;;;12.09;74.28;102783.78;5017895;28;20288;-55
2023/05/30 06:57:29;;;;;;;;;;;;;;;12.03;74.38;102797.25;5017826;28;19917;-57
2023/05/30 06:59:55;;;;;;;;;;;;;;;11.92;74.81;102793.22;5015977;28;19918;-57
2023/05/30 07:02:20;;;;;;;;;;;;;;;12.01;74.79;102795.38;5018101;28;20272;-55
2023/05/30 07:04:45;;;;;;;;;;;;;;;12.06;74.43;102799.97;5010649;28;20296;-55
2023/05/30 07:07:10;;;;;;;;;;;;;;;12.05;73.83;102797.31;5016348;28;20012;-57
2023/05/30 07:09:36;;;;;;;;;;;;;;;12.08;74.28;102792.34;5019562;28;19949;-56
2023/05/30 07:12:02;;;;;;;;;;;;;;;12.19;74.30;102798.91;5017385;28;19921;-55
2023/05/30 07:14:27;;;;;;;;;;;;;;;12.35;73.43;102790.28;5016753;28;20268;-55
2023/05/30 07:16:52;;;;;;;;;;;;;;;12.72;71.90;102794.75;5017918;28;19964;-56
2023/05/30 07:19:17;;;;;;;;;;;;;;;12.98;71.84;102799.47;5013548;28;19918;-57
2023/05/30 07:21:43;;;;;;;;;;;;;;;13.27;70.20;102802.63;5009915;28;20502;-56
2023/05/30 07:24:08;;;;;;;;;;;;;;;13.42;69.63;102800.78;5022104;28;19963;-57
2023/05/30 07:26:34;;;;;;;;;;;;;;;13.42;68.78;102795.63;5018505;28;19968;-55
2023/05/30 07:29:00;;;;;;;;;;;;;;;13.39;69.09;102806.69;5013630;28;19945;-57
2023/05/30 07:31:25;;;;;;;;;;;;;;;13.06;69.05;102805.94;5027720;28;19917;-56
2023/05/30 07:33:51;;;;;;;;;;;;;;;12.91;70.43;102797.41;5023313;28;20261;-56
2023/05/30 07:36:16;;;;;;;;;;;;;;;12.82;70.65;102805.59;5025007;28;19959;-56
2023/05/30 07:38:41;;;;;;;;;;;;;;;12.79;70.73;102804.56;5021964;28;20047;-55
2023/05/30 07:41:06;;;;;;;;;;;;;;;12.76;70.81;102802.72;5019008;28;19948;-56
2023/05/30 07:43:32;;;;;;;;;;;;;;;12.69;70.17;102810.09;5020781;28;19921;-56
2023/05/30 07:45:57;;;;;;;;;;;;;;;12.71;69.92;102798.13;5023028;28;20004;-56
2023/05/30 07:48:23;;;;;;;;;;;;;;;12.67;70.11;102807.41;5020729;28;19925;-56
2023/05/30 07:50:48;;;;;;;;;;;;;;;12.70;70.43;102806.69;5017397;28;20304;-55
2023/05/30 07:53:13;;;;;;;;;;;;;;;13.01;70.47;102798.75;5018465;28;19921;-54
2023/05/30 07:55:39;;;;;;;;;;;;;;;13.34;67.99;102808.16;5018446;28;19957;-55
2023/05/30 07:58:04;;;;;;;;;;;;;;;13.38;67.64;102804.03;5013430;28;20288;-54
2023/05/30 08:00:29;;;;;;;;;;;;;;;13.28;67.92;102800.13;5022745;28;20295;-55
2023/05/30 08:02:54;;;;;;;;;;;;;;;13.08;68.14;102787.91;5016995;28;19926;-55
2023/05/30 08:05:19;;;;;;;;;;;;;;;13.29;68.28;102790.69;5019740;28;19925;-55
2023/05/30 08:07:45;;;;;;;;;;;;;;;13.57;66.92;102785.97;5016358;28;20265;-56
2023/05/30 08:10:10;;;;;;;;;;;;;;;13.83;65.97;102794.97;5015606;28;20452;-56
2023/05/30 08:12:36;;;;;;;;;;;;;;;14.21;66.33;102782.84;5014711;28;19921;-55
2023/05/30 08:15:01;;;;;;;;;;;;;;;14.57;64.44;102780.97;5018487;28;19921;-56
2023/05/30 08:17:29;;;;;;;;;;;;;;;14.92;62.38;102785.00;5013168;28;19922;-55
2023/05/30 08:19:55;;;;;;;;;;;;;;;15.08;61.74;102776.16;5017208;28;20466;-56
2023/05/30 08:22:22;;;;;;;;;;;;;;;14.94;62.80;102775.63;5014981;28;20031;-56
2023/05/30 08:24:50;;;;;;;;;;;;;;;14.93;62.04;102789.38;5018101;28;20305;-56
2023/05/30 08:27:16;;;;;;;;;;;;;;;14.91;61.82;102784.94;5017592;28;19936;-56
2023/05/30 08:29:42;;;;;;;;;;;;;;;15.00;62.77;102783.63;5016275;28;20918;-57
2023/05/30 08:32:07;;;;;;;;;;;;;;;15.25;61.29;102777.72;5012958;28;20008;-55
2023/05/30 08:34:32;;;;;;;;;;;;;;;15.42;60.43;102774.91;5019700;28;19925;-55
2023/05/30 08:36:58;;;;;;;;;;;;;;;15.54;59.39;102781.44;5022844;28;19924;-56
2023/05/30 08:39:23;;;;;;;;;;;;;;;15.54;60.91;102772.78;5017491;28;19951;-55
2023/05/30 08:41:48;;;;;;;;;;;;;;;15.66;59.23;102772.41;5021591;28;19925;-55
2023/05/30 08:44:13;;;;;;;;;;;;;;;15.76;60.26;102772.78;5020275;28;19924;-56
2023/05/30 08:46:42;;;;;;;;;;;;;;;16.03;59.20;102772.91;5020433;28;19924;-57
2023/05/30 08:49:11;;;;;;;;;;;;;;;16.40;59.54;102761.22;5016259;28;19964;-56
2023/05/30 08:51:39;;;;;;;;;;;;;;;16.69;58.29;102762.22;5017536;28;19964;-56
2023/05/30 08:54:05;;;;;;;;;;;;;;;16.82;56.13;102748.81;5018776;28;19917;-55
2023/05/30 08:56:33;;;;;;;;;;;;;;;16.79;57.35;102753.91;5021693;28;20012;-56
2023/05/30 08:59:00;;;;;;;;;;;;;;;16.81;54.80;102757.44;5020143;28;19945;-56
2023/05/30 09:01:26;;;;;;;;;;;;;;;16.70;55.00;102753.63;5017049;28;19946;-56
2023/05/30 09:03:51;;;;;;;;;;;;;;;16.67;54.36;102752.59;5019625;28;19932;-56
2023/05/30 09:06:17;;;;;;;;;;;;;;;16.56;56.31;102757.41;5017682;28;20291;-55
2023/05/30 09:08:45;;;;;;;;;;;;;;;16.34;56.61;102751.50;5012617;28;19932;-56
2023/05/30 09:11:11;;;;;;;;;;;;;;;16.15;57.02;102756.00;5015615;28;19921;-56
2023/05/30 09:13:36;;;;;;;;;;;;;;;15.96;58.12;102752.75;5016983;28;19917;-56
2023/05/30 09:16:02;;;;;;;;;;;;;;;15.90;58.41;102754.25;5018260;28;19917;-56
2023/05/30 09:18:31;;;;;;;;;;;;;;;16.01;58.65;102748.59;5016858;28;20004;-56
2023/05/30 09:20:57;;;;;;;;;;;;;;;16.07;57.37;102743.63;5018217;28;19917;-56
2023/05/30 09:23:23;;;;;;;;;;;;;;;16.15;56.93;102738.72;5016803;28;19921;-56
2023/05/30 09:25:49;;;;;;;;;;;;;;;16.08;57.17;102745.41;5017055;28;19917;-56
2023/05/30 09:28:22;;;;;;;;;;;;;;;16.15;56.88;102745.63;5015995;28;19928;-56
2023/05/30 09:31:03;;;;;;;;;;;;;;;16.24;57.79;102735.56;5019843;28;19932;-56
2023/05/30 09:33:44;;;;;;;;;;;;;;;16.45;57.96;102736.31;5016649;28;20387;-56
2023/05/30 09:36:15;;;;;;;;;;;;;;;16.64;56.49;102737.78;5010883;28;19921;-57
2023/05/30 09:38:50;;;;;;;;;;;;;;;16.55;55.45;102732.28;5016690;28;20368;-57
2023/05/30 09:41:15;;;;;;;;;;;;;;;16.61;55.28;102733.34;5016839;28;19913;-57
2023/05/30 09:43:40;;;;;;;;;;;;;;;16.46;54.97;102732.88;5020624;28;19931;-56
2023/05/30 09:46:06;;;;;;;;;;;;;;;16.44;55.53;102734.53;5014656;28;19917;-57
2023/05/30 09:48:32;;;;;;;;;;;;;;;16.38;55.02;102733.41;5017867;28;19928;-57
2023/05/30 09:50:59;;;;;;;;;;;;;;;16.44;55.11;102725.84;5013179;28;20281;-55
2023/05/30 09:53:26;;;;;;;;;;;;;;;16.38;54.85;102725.63;5013123;28;20396;-56
2023/05/30 09:55:52;;;;;;;;;;;;;;;16.41;55.23;102725.75;5011688;28;20343;-56
2023/05/30 09:58:17;;;;;;;;;;;;;;;16.47;54.43;102726.84;5014314;28;19918;-56
2023/05/30 10:00:48;;;;;;;;;;;;;;;16.50;55.16;102723.44;5010646;28;19944;-57
2023/05/30 10:03:13;;;;;;;;;;;;;;;16.52;55.69;102719.22;5010682;28;20048;-56
2023/05/30 10:05:39;;;;;;;;;;;;;;;16.74;54.51;102713.00;5017584;28;19918;-56
2023/05/30 10:08:05;;;;;;;;;;;;;;;16.82;54.12;102708.97;5015177;28;19952;-56
2023/05/30 10:10:31;;;;;;;;;;;;;;;16.81;54.02;102720.19;5018800;28;19928;-57
2023/05/30 10:12:57;;;;;;;;;;;;;;;16.76;53.72;102721.75;5013439;28;20571;-56
2023/05/30 10:15:23;;;;;;;;;;;;;;;16.72;54.65;102720.75;5019619;28;19922;-56
2023/05/30 10:17:56;;;;;;;;;;;;;;;16.76;54.03;102706.16;5018592;28;19917;-56
2023/05/30 10:20:23;;;;;;;;;;;;;;;16.97;53.98;102701.63;5016247;28;19960;-59
2023/05/30 10:22:52;;;;;;;;;;;;;;;17.04;52.77;102711.38;5016693;28;19921;-57
2023/05/30 10:25:18;;;;;;;;;;;;;;;17.06;53.72;102711.44;5015306;28;19914;-56
2023/05/30 10:27:48;;;;;;;;;;;;;;;17.16;52.68;102709.16;5014357;28;20021;-57
2023/05/30 10:30:15;;;;;;;;;;;;;;;17.08;52.96;102714.97;5011571;28;20383;-57
2023/05/30 10:32:43;;;;;;;;;;;;;;;17.05;53.37;102715.75;5013869;28;19917;-57
2023/05/30 10:35:11;;;;;;;;;;;;;;;17.03;54.18;102707.00;5010972;28;19929;-56
2023/05/30 10:37:36;;;;;;;;;;;;;;;17.18;52.40;102706.63;5010282;28;20375;-56
2023/05/30 10:40:20;;;;;;;;;;;;;;;17.30;52.64;102699.19;5024020;28;19922;-57
2023/05/30 10:43:04;;;;;;;;;;;;;;;17.37;52.28;102695.94;5015266;28;20085;-57
2023/05/30 10:45:44;;;;;;;;;;;;;;;17.45;52.42;102693.53;5015481;28;20025;-56
2023/05/30 10:48:25;;;;;;;;;;;;;;;17.53;52.05;102698.94;5015733;28;20372;-57
2023/05/30 10:50:53;;;;;;;;;;;;;;;17.71;51.73;102694.25;5014226;28;19972;-56
2023/05/30 10:53:19;;;;;;;;;;;;;;;17.68;51.75;102697.69;5016092;28;19914;-56
2023/05/30 10:55:48;;;;;;;;;;;;;;;17.67;51.26;102701.13;5015766;28;19971;-55
2023/05/30 10:58:31;;;;;;;;;;;;;;;17.79;51.87;102691.94;5013410;28;20288;-58
2023/05/30 11:01:17;;;;;;;;;;;;;;;17.91;50.24;102695.75;5014712;28;20051;-56
2023/05/30 11:03:44;;;;;;;;;;;;;;;18.06;51.39;102682.25;5012475;28;19925;-57
2023/05/30 11:06:10;;;;;;;;;;;;;;;18.12;51.92;102677.19;5013989;28;19918;-57
2023/05/30 11:08:38;;;;;;;;;;;;;;;18.20;49.87;102674.78;5014861;28;20273;-55
2023/05/30 11:11:14;;;;;;;;;;;;;;;18.16;50.53;102680.78;5019014;28;19921;-56
2023/05/30 11:13:42;;;;;;;;;;;;;;;18.30;50.44;102678.50;5019549;28;19920;-57
2023/05/30 11:16:20;;;;;;;;;;;;;;;18.18;50.98;102676.47;5016423;28;19917;-57
2023/05/30 11:18:47;;;;;;;;;;;;;;;18.37;50.40;102668.28;5012965;28;20011;-56
2023/05/30 11:21:12;;;;;;;;;;;;;;;18.53;48.55;102677.34;5020712;28;20008;-57
2023/05/30 11:23:57;;;;;;;;;;;;;;;18.66;49.49;102661.16;5016329;28;20398;-56
2023/05/30 11:26:42;;;;;;;;;;;;;;;18.69;48.67;102666.50;5020056;28;19921;-56
2023/05/30 11:29:27;;;;;;;;;;;;;;;18.86;49.10;102660.75;5013341;28;19917;-56
2023/05/30 11:31:53;;;;;;;;;;;;;;;18.93;48.05;102666.16;5016021;28;19963;-55
2023/05/30 11:34:19;;;;;;;;;;;;;;;18.97;48.07;102662.75;5014223;28;19922;-56
2023/05/30 11:36:46;;;;;;;;;;;;;;;18.96;49.03;102667.94;5015463;28;19918;-57
2023/05/30 11:39:11;;;;;;;;;;;;;;;18.87;48.09;102665.13;5014166;28;19913;-55
2023/05/30 11:41:37;;;;;;;;;;;;;;;18.98;48.35;102648.88;5015883;28;20454;-57
2023/05/30 11:44:03;;;;;;;;;;;;;;;19.20;47.83;102650.22;5016371;28;19922;-57
2023/05/30 11:46:28;;;;;;;;;;;;;;;19.19;48.29;102640.66;5026728;28;19917;-56
2023/05/30 11:48:57;;;;;;;;;;;;;;;19.31;46.89;102644.34;5024731;28;19917;-56
2023/05/30 11:51:22;;;;;;;;;;;;;;;19.39;46.77;102637.56;5023153;28;20688;-57
2023/05/30 11:53:48;;;;;;;;;;;;;;;19.31;46.83;102650.44;5024303;28;19917;-57
2023/05/30 11:56:14;;;;;;;;;;;;;;;19.20;47.58;102641.53;5022743;28;20371;-56
2023/05/30 11:58:39;;;;;;;;;;;;;;;19.25;47.61;102632.94;5020022;28;19921;-57
2023/05/30 12:01:06;;;;;;;;;;;;;;;19.39;48.36;102620.16;5014268;28;19924;-57
2023/05/30 12:03:31;;;;;;;;;;;;;;;19.47;48.05;102620.31;5015018;28;19922;-57
2023/05/30 12:05:57;;;;;;;;;;;;;;;19.52;47.74;102616.06;5018133;28;20268;-57
2023/05/30 12:08:23;;;;;;;;;;;;;;;19.74;47.21;102612.16;5012756;28;19979;-57
2023/05/30 12:10:51;;;;;;;;;;;;;;;19.82;46.45;102611.44;5012974;28;19917;-57
2023/05/30 12:13:17;;;;;;;;;;;;;;;19.72;45.96;102616.50;5018193;28;20399;-56
2023/05/30 12:15:43;;;;;;;;;;;;;;;19.76;45.42;102611.34;5017085;28;19925;-55
2023/05/30 12:18:09;;;;;;;;;;;;;;;19.71;46.49;102612.09;5014059;28;20296;-57
2023/05/30 12:20:44;;;;;;;;;;;;;;;19.69;45.70;102609.47;5012785;28;19967;-57
2023/05/30 12:23:10;;;;;;;;;;;;;;;19.78;46.13;102601.81;5015342;28;19917;-57
2023/05/30 12:25:35;;;;;;;;;;;;;;;19.95;45.34;102596.88;5022477;28;19914;-56
2023/05/30 12:28:01;;;;;;;;;;;;;;;20.13;44.94;102595.41;5017173;28;19923;-56
2023/05/30 12:30:29;;;;;;;;;;;;;;;20.14;44.87;102594.56;5016260;28;19960;-56
2023/05/30 12:32:56;;;;;;;;;;;;;;;20.19;44.47;102591.16;5012189;28;19918;-56
2023/05/30 12:35:24;;;;;;;;;;;;;;;20.17;44.10;102587.66;5014625;28;20769;-57
2023/05/30 12:37:54;;;;;;;;;;;;;;;20.19;45.54;102585.06;5015021;28;19920;-57